Time;durP1;ratioP1;P1;durP2;ratioP2;P2;SDS_P1;SDS_P2;PMS_P1;PMS_P2;Temp;Humidity;BMP_temperature;BMP_pressure;BME280_temperature;BME280_humidity;BME280_pressure;Samples;Min_cycle;Max_cycle;Signal;HPM_P1;HPM_P2
2021/11/09 00:01:28;;;;;;;8.13;3.95;;;8.60;71.40;;;8.00;56.28;95703.28;5075181;28;20244;-80
2021/11/09 00:04:05;;;;;;;5.60;3.97;;;8.60;71.40;;;8.00;56.21;95698.06;5061824;28;20187;-81
2021/11/09 00:06:37;;;;;;;7.22;4.03;;;8.60;71.40;;;7.99;56.42;95692.00;5055651;28;20589;-80
2021/11/09 00:09:10;;;;;;;6.07;3.92;;;8.60;71.40;;;8.00;56.50;95703.28;5055609;28;20257;-81
2021/11/09 00:11:39;;;;;;;8.93;4.10;;;8.70;71.50;;;8.01;56.27;95699.69;5071407;28;20318;-81
2021/11/09 00:14:06;;;;;;;6.47;4.05;;;8.70;71.50;;;8.00;56.50;95696.25;5071889;28;20713;-81
2021/11/09 00:16:34;;;;;;;6.85;4.07;;;8.60;71.50;;;8.02;56.25;95703.94;5053474;28;20227;-81
2021/11/09 00:19:03;;;;;;;5.82;3.85;;;8.60;71.50;;;8.00;56.52;95693.63;5071394;28;20703;-81
2021/11/09 00:21:30;;;;;;;8.13;4.13;;;8.60;71.60;;;7.99;56.62;95696.41;5072286;28;20222;-81
2021/11/09 00:24:00;;;;;;;6.97;4.03;;;8.60;71.50;;;7.99;56.35;95702.44;5074643;28;20644;-81
2021/11/09 00:26:28;;;;;;;6.38;3.90;;;8.60;71.50;;;7.98;56.23;95700.84;5060345;28;20227;-81
2021/11/09 00:28:56;;;;;;;6.72;3.80;;;8.60;71.50;;;8.00;56.34;95706.69;5054604;28;20604;-81
2021/11/09 00:31:23;;;;;;;7.53;4.35;;;8.60;71.50;;;7.99;56.75;95704.25;5054265;28;20223;-81
2021/11/09 00:33:50;;;;;;;6.53;4.30;;;8.60;71.50;;;8.00;56.70;95705.91;5071008;28;20309;-82
2021/11/09 00:36:17;;;;;;;6.25;4.30;;;8.60;71.70;;;8.00;56.58;95704.09;5072964;28;20254;-81
2021/11/09 00:38:46;;;;;;;9.18;4.50;;;8.70;71.70;;;7.99;56.89;95701.63;5054813;28;20180;-81
2021/11/09 00:41:14;;;;;;;6.00;4.13;;;8.60;71.60;;;7.98;57.00;95706.06;5054757;28;20219;-81
2021/11/09 00:43:42;;;;;;;11.30;5.45;;;8.60;71.60;;;7.97;56.90;95711.41;5070668;28;20274;-80
2021/11/09 00:46:09;;;;;;;5.90;4.20;;;8.60;71.80;;;7.95;57.08;95714.19;5070846;28;20310;-81
2021/11/09 00:48:36;;;;;;;8.48;4.47;;;8.60;71.80;;;7.96;57.02;95718.44;5070905;28;20223;-81
2021/11/09 00:51:04;;;;;;;7.00;3.78;;;8.60;71.80;;;7.93;56.81;95715.31;5070564;28;20272;-81
2021/11/09 00:53:31;;;;;;;6.25;4.03;;;8.60;71.80;;;7.93;56.89;95712.72;5081340;28;20695;-81
2021/11/09 00:55:58;;;;;;;5.22;3.92;;;8.60;71.80;;;7.91;56.74;95706.81;5057554;28;20195;-81
2021/11/09 00:58:25;;;;;;;7.63;4.32;;;8.60;71.80;;;7.89;56.85;95706.16;5063724;28;20214;-80
2021/11/09 01:01:05;;;;;;;6.90;4.30;;;8.60;71.80;;;7.90;57.19;95711.22;5065883;28;20219;-81
2021/11/09 01:03:32;;;;;;;7.20;4.43;;;8.60;71.80;;;7.91;57.43;95719.88;5041264;28;20282;-81
2021/11/09 01:05:59;;;;;;;9.45;4.68;;;8.60;71.80;;;7.90;57.01;95721.69;5070336;28;20215;-81
2021/11/09 01:08:27;;;;;;;5.57;3.60;;;8.60;71.80;;;7.90;56.86;95720.84;5041860;28;20248;-81
2021/11/09 01:10:54;;;;;;;5.50;4.05;;;8.50;71.80;;;7.90;56.58;95723.47;5054208;28;20207;-81
2021/11/09 01:13:26;;;;;;;7.97;4.20;;;8.60;71.90;;;7.90;57.03;95728.69;5054220;28;20244;-81
2021/11/09 01:15:55;;;;;;;6.90;4.10;;;8.50;72.00;;;7.89;56.96;95727.88;5053834;28;20222;-80
2021/11/09 01:18:38;;;;;;;8.82;4.57;;;8.50;71.90;;;7.87;57.27;95727.19;5070050;28;20613;-79
2021/11/09 01:21:06;;;;;;;8.98;4.40;;;8.60;73.00;;;7.88;56.77;95731.44;5047872;28;20224;-80
2021/11/09 01:23:34;;;;;;;6.47;4.18;;;8.50;71.90;;;7.88;57.08;95728.84;5070602;28;20292;-80
2021/11/09 01:26:02;;;;;;;8.10;5.00;;;8.50;72.00;;;7.87;57.33;95731.63;5053789;28;20227;-81
2021/11/09 01:28:30;;;;;;;7.30;4.80;;;8.50;72.00;;;7.82;57.22;95729.47;5075842;28;20638;-81
2021/11/09 01:30:59;;;;;;;8.00;4.32;;;8.50;72.00;;;7.81;57.19;95726.03;5074168;28;20272;-81
2021/11/09 01:33:27;;;;;;;7.28;4.30;;;8.50;72.10;;;7.83;57.17;95723.28;5069323;28;20186;-81
2021/11/09 01:35:55;;;;;;;7.90;4.13;;;8.60;72.10;;;7.82;57.44;95730.31;5060744;28;20195;-80
2021/11/09 01:38:22;;;;;;;6.95;4.60;;;8.50;72.10;;;7.81;57.45;95726.03;5077539;28;20614;-81
2021/11/09 01:40:50;;;;;;;8.68;4.55;;;8.50;72.10;;;7.82;57.38;95726.84;5069661;28;20271;-80
2021/11/09 01:43:22;;;;;;;7.22;4.65;;;8.50;72.20;;;7.81;57.67;95735.66;5037226;28;20200;-81
2021/11/09 01:45:50;;;;;;;7.30;4.22;;;8.50;72.30;;;7.78;57.66;95725.53;5054061;28;20223;-81
2021/11/09 01:48:19;;;;;;;6.75;4.43;;;8.50;72.30;;;7.77;57.85;95729.91;5054279;28;20203;-81
2021/11/09 01:50:56;;;;;;;8.05;5.03;;;8.50;72.40;;;7.72;58.12;95724.34;5044301;28;20188;-80
2021/11/09 01:53:24;;;;;;;8.02;4.63;;;8.40;72.50;;;7.74;57.71;95726.78;5073863;28;20184;-81
2021/11/09 01:55:52;;;;;;;8.65;4.47;;;8.40;72.30;;;7.72;57.71;95723.53;5057001;28;20297;-79
2021/11/09 01:58:20;;;;;;;9.27;5.32;;;8.40;72.40;;;7.71;58.03;95727.13;5056921;28;20266;-80
2021/11/09 02:01:06;;;;;;;7.72;4.82;;;8.40;72.40;;;7.69;58.08;95725.47;5048910;28;20206;-81
2021/11/09 02:03:36;;;;;;;6.38;4.43;;;8.40;72.60;;;7.69;58.02;95727.28;5077297;28;20203;-80
2021/11/09 02:06:04;;;;;;;6.90;4.18;;;8.40;72.40;;;7.71;57.86;95732.34;5076987;28;20226;-80
2021/11/09 02:08:31;;;;;;;6.82;4.78;;;8.40;72.50;;;7.71;57.67;95727.13;5077256;28;20229;-80
2021/11/09 02:10:58;;;;;;;7.43;4.47;;;8.40;72.40;;;7.69;57.61;95725.47;5071686;28;20224;-80
2021/11/09 02:13:26;;;;;;;6.30;4.78;;;8.40;72.40;;;7.71;57.59;95727.94;5057192;28;20645;-81
2021/11/09 02:15:54;;;;;;;7.03;4.07;;;8.40;72.50;;;7.71;57.68;95722.69;5056662;28;20287;-80
2021/11/09 02:18:22;;;;;;;5.47;3.97;;;8.40;72.40;;;7.66;57.64;95723.16;5056883;28;20253;-81
2021/11/09 02:21:20;;;;;;;5.18;3.85;;;8.40;72.40;;;7.67;57.58;95730.03;5056776;28;20689;-81
2021/11/09 02:23:48;;;;;;;5.15;3.60;;;8.30;72.40;;;7.64;57.20;95730.34;5072942;28;20211;-81
2021/11/09 02:26:20;;;;;;;8.23;4.20;;;8.40;72.30;;;7.62;57.28;95728.84;5056111;28;20234;-80
2021/11/09 02:28:52;;;;;;;6.78;4.05;;;8.30;72.20;;;7.53;57.29;95725.34;5073356;28;20195;-81
2021/11/09 02:31:20;;;;;;;7.78;4.25;;;8.30;72.20;;;7.56;57.53;95739.91;5069680;28;20316;-81
2021/11/09 02:33:48;;;;;;;6.60;4.07;;;8.30;72.20;;;7.50;57.36;95744.75;5036738;28;20269;-81
2021/11/09 02:36:18;;;;;;;7.22;4.47;;;8.30;72.10;;;7.43;57.38;95737.69;5053502;28;20272;-81
2021/11/09 02:38:47;;;;;;;7.72;4.47;;;8.30;72.20;;;7.47;57.26;95744.22;5055997;28;20244;-81
2021/11/09 02:41:16;;;;;;;7.38;4.53;;;8.30;72.30;;;7.44;57.47;95749.78;5047517;28;20216;-81
2021/11/09 02:43:43;;;;;;;9.45;4.80;;;8.20;73.00;;;7.40;57.27;95743.19;5056530;28;20199;-81
2021/11/09 02:51:34;;;;;;;7.95;5.35;;;8.20;72.40;;;7.21;57.67;95753.69;5072326;28;20223;-80
2021/11/09 02:59:57;;;;;;;8.05;5.25;;;8.00;71.90;;;7.05;57.50;95762.19;5064551;28;20253;-81
2021/11/09 03:02:50;;;;;;;7.68;5.03;;;8.00;71.80;;;6.93;57.28;95758.13;5059385;28;20215;-80
2021/11/09 03:05:17;;;;;;;13.50;5.75;;;8.00;71.80;;;6.81;57.33;95760.13;5053779;28;20684;-80
2021/11/09 03:07:52;;;;;;;7.40;5.00;;;7.90;71.70;;;6.70;57.55;95761.16;5068521;28;20314;-81
2021/11/09 03:10:27;;;;;;;9.30;5.85;;;7.70;71.50;;;6.61;57.40;95761.22;5070477;28;20195;-80
2021/11/09 03:12:55;;;;;;;9.57;5.45;;;7.70;71.50;;;6.51;57.49;95763.88;5066295;28;20292;-81
2021/11/09 03:15:31;;;;;;;10.60;5.80;;;7.60;71.50;;;6.46;57.31;95771.28;5068082;28;20192;-80
2021/11/09 03:18:04;;;;;;;9.27;6.10;;;7.50;71.50;;;6.34;57.75;95770.69;5036586;28;20222;-79
2021/11/09 03:20:39;;;;;;;10.13;6.35;;;7.40;71.40;;;6.27;57.77;95780.03;5034333;28;20201;-79
2021/11/09 03:45:22;;;;;;;13.90;7.65;;;6.90;73.30;;;6.08;59.58;95797.38;5053886;28;20206;-80
2021/11/09 03:47:53;;;;;;;13.98;7.85;;;6.90;73.70;;;6.13;60.17;95794.31;5032217;28;20685;-78
2021/11/09 03:50:25;;;;;;;11.02;7.18;;;6.90;73.70;;;6.16;60.01;95799.25;5068347;28;20636;-79
2021/11/09 03:53:00;;;;;;;11.32;7.47;;;7.00;73.80;;;6.24;60.50;95799.38;5068811;28;20211;-79
2021/11/09 03:58:07;;;;;;;13.73;7.68;;;7.00;73.80;;;6.32;59.96;95796.84;5052332;28;20226;-79
2021/11/09 04:03:37;;;;;;;13.40;7.85;;;7.10;73.80;;;6.40;60.56;95814.41;5073628;28;20191;-80
2021/11/09 04:06:24;;;;;;;10.98;7.38;;;7.10;73.80;;;6.44;60.53;95812.34;5062198;28;20227;-79
2021/11/09 04:11:48;;;;;;;13.45;7.70;;;7.20;73.90;;;6.48;60.31;95803.25;5071742;28;20637;-79
2021/11/09 04:14:35;;;;;;;14.25;8.10;;;7.20;73.90;;;6.51;60.68;95816.00;5071148;28;20195;-81
2021/11/09 04:17:33;;;;;;;12.65;7.35;;;7.20;73.90;;;6.53;60.48;95811.44;5071944;28;20215;-81
2021/11/09 04:20:16;;;;;;;11.48;7.80;;;7.30;73.90;;;6.54;60.53;95813.09;5057157;28;20211;-81
2021/11/09 04:28:05;;;;;;;13.95;7.07;;;7.30;74.00;;;6.61;60.05;95824.59;5072588;28;20218;-80
2021/11/09 04:30:54;;;;;;;9.95;7.40;;;7.40;74.10;;;6.62;60.32;95826.25;5072596;28;20234;-81
2021/11/09 04:45:49;;;;;;;13.45;7.82;;;7.40;74.10;;;6.64;60.33;95823.47;5070946;28;20278;-81
2021/11/09 05:09:09;;;;;;;12.45;6.70;;;7.50;74.00;;;6.76;59.20;95844.97;5061017;28;20218;-80
2021/11/09 05:11:38;;;;;;;10.43;6.82;;;7.50;73.90;;;6.74;59.06;95842.50;5058364;28;20253;-80
2021/11/09 05:14:11;;;;;;;12.85;6.57;;;7.50;73.80;;;6.70;58.72;95834.16;5060174;28;20210;-79
2021/11/09 05:16:39;;;;;;;7.93;5.85;;;7.50;73.90;;;6.72;59.19;95854.88;5068400;28;20219;-81
2021/11/09 05:19:09;;;;;;;8.73;6.20;;;7.50;73.50;;;6.68;58.92;95856.94;5041516;28;20288;-81
2021/11/09 05:21:39;;;;;;;10.65;5.93;;;7.40;73.50;;;6.66;58.79;95861.47;5057112;28;20219;-80
2021/11/09 05:24:07;;;;;;;10.32;6.28;;;7.50;73.40;;;6.64;59.12;95865.19;5057367;28;20265;-80
2021/11/09 05:26:37;;;;;;;11.10;5.72;;;7.40;73.40;;;6.60;58.95;95867.25;5054194;28;20227;-80
2021/11/09 05:29:05;;;;;;;10.65;6.20;;;7.50;73.50;;;6.50;58.74;95856.06;5074549;28;20187;-80
2021/11/09 05:31:33;;;;;;;12.13;6.80;;;7.40;73.40;;;6.52;58.63;95865.38;5073674;28;20584;-79
2021/11/09 05:34:01;;;;;;;12.52;6.40;;;7.40;73.40;;;6.49;58.85;95867.44;5075785;28;20197;-80
2021/11/09 05:36:34;;;;;;;10.30;6.22;;;7.30;73.30;;;6.47;58.56;95874.56;5077999;28;20219;-82
2021/11/09 05:41:38;;;;;;;7.35;5.25;;;7.30;73.50;;;6.39;58.80;95881.31;5059872;28;20317;-81
2021/11/09 05:44:07;;;;;;;10.18;5.72;;;7.20;73.30;;;6.34;58.67;95875.72;5084005;28;20245;-80
2021/11/09 05:46:36;;;;;;;10.73;5.50;;;7.20;73.40;;;6.31;58.71;95888.19;5070373;28;20216;-80
2021/11/09 05:49:04;;;;;;;32.90;19.92;;;7.20;73.30;;;6.28;59.01;95888.50;5060322;28;20241;-80
2021/11/09 05:51:33;;;;;;;19.02;12.80;;;7.10;73.20;;;6.23;58.83;95899.34;5052060;28;20279;-80
2021/11/09 05:54:00;;;;;;;13.23;8.68;;;7.10;73.20;;;6.17;58.90;95894.69;5073260;28;20203;-80
2021/11/09 05:56:29;;;;;;;12.50;7.68;;;7.10;73.20;;;6.13;58.84;95909.78;5069475;28;20215;-80
2021/11/09 05:58:57;;;;;;;12.50;7.22;;;7.00;73.20;;;6.09;58.86;95904.00;5071207;28;20635;-81
2021/11/09 06:01:25;;;;;;;60.17;24.98;;;7.00;73.20;;;6.06;59.13;95913.88;5055138;28;20220;-81
2021/11/09 06:03:53;;;;;;;29.63;13.50;;;6.90;73.20;;;6.01;59.03;95911.69;5053304;28;20221;-81
2021/11/09 06:06:20;;;;;;;19.08;10.38;;;6.90;73.30;;;5.97;58.92;95918.13;5070844;28;20765;-81
2021/11/09 06:08:50;;;;;;;20.08;10.13;;;6.90;73.20;;;5.87;58.85;95915.53;5054727;28;20674;-81
2021/11/09 06:11:18;;;;;;;25.02;11.38;;;6.80;73.20;;;5.82;58.53;95922.09;5071461;28;20233;-80
2021/11/09 06:13:46;;;;;;;21.30;10.50;;;6.80;73.20;;;5.74;58.78;95934.00;5071591;28;20203;-81
2021/11/09 06:16:15;;;;;;;23.13;12.10;;;6.70;73.00;;;5.66;58.74;95928.66;5071799;28;20211;-81
2021/11/09 06:18:42;;;;;;;19.75;10.95;;;6.70;72.90;;;5.60;58.73;95937.84;5072092;28;20195;-80
2021/11/09 06:21:10;;;;;;;14.63;8.80;;;6.60;73.00;;;5.52;58.95;95942.88;5055592;28;20579;-80
2021/11/09 06:23:37;;;;;;;15.38;8.40;;;6.50;73.00;;;5.46;59.22;95938.22;5056566;28;20593;-81
2021/11/09 06:26:04;;;;;;;13.60;8.88;;;6.50;73.20;;;5.42;59.32;95949.84;5040155;28;20215;-82
2021/11/09 06:28:32;;;;;;;17.02;10.95;;;6.40;73.30;;;5.37;58.62;95941.63;5073184;28;20280;-81
2021/11/09 06:31:00;;;;;;;16.33;10.35;;;6.40;73.40;;;5.33;58.74;95946.28;5056436;28;20634;-81
2021/11/09 06:33:27;;;;;;;11.02;7.22;;;6.30;73.30;;;5.28;59.12;95949.28;5073360;28;20538;-81
2021/11/09 06:35:55;;;;;;;10.65;6.57;;;6.30;73.20;;;5.22;59.00;95949.78;5076854;28;20665;-81
2021/11/09 06:38:22;;;;;;;8.63;5.88;;;6.30;73.30;;;5.24;58.91;95966.09;5056704;28;20245;-81
2021/11/09 06:40:50;;;;;;;6.97;5.05;;;6.20;73.20;;;5.16;59.29;95963.34;5055379;28;20851;-81
2021/11/09 06:43:17;;;;;;;7.68;5.10;;;6.20;73.20;;;5.18;59.37;95971.03;5074168;28;20274;-81
2021/11/09 06:45:46;;;;;;;8.93;4.93;;;6.10;73.10;;;5.13;59.04;95974.81;5073186;28;20223;-81
2021/11/09 06:48:14;;;;;;;7.57;4.72;;;6.10;73.10;;;5.18;59.31;95989.22;5072869;28;20219;-80
2021/11/09 06:50:41;;;;;;;7.95;4.85;;;6.10;73.20;;;5.18;59.22;95984.84;5073062;28;20268;-81
2021/11/09 06:53:08;;;;;;;7.95;5.45;;;6.00;73.10;;;5.21;59.23;95988.94;5072753;28;20666;-80
2021/11/09 06:55:37;;;;;;;9.82;5.32;;;6.00;73.40;;;5.27;59.50;95989.25;5073893;28;20296;-81
2021/11/09 06:58:05;;;;;;;7.63;5.18;;;6.00;73.80;;;5.32;59.42;96004.44;5084941;28;20825;-80
2021/11/09 07:00:32;;;;;;;8.82;5.15;;;6.10;73.90;;;5.39;59.46;96010.78;5072334;28;20225;-78
2021/11/09 07:03:00;;;;;;;7.88;5.03;;;6.10;74.00;;;5.44;59.58;96007.78;5053433;28;20649;-80
2021/11/09 07:05:28;;;;;;;8.95;5.70;;;6.10;74.00;;;5.53;59.77;96019.16;5069412;28;20269;-80
2021/11/09 07:07:55;;;;;;;8.98;5.32;;;6.10;74.00;;;5.59;59.32;96027.28;5052720;28;20552;-79
2021/11/09 07:10:22;;;;;;;8.15;5.55;;;6.20;74.20;;;5.64;59.75;96026.03;5065089;28;20204;-80
2021/11/09 07:12:50;;;;;;;9.35;5.45;;;6.20;74.20;;;5.69;59.36;96029.91;5045556;28;20298;-80
2021/11/09 07:15:17;;;;;;;7.97;5.13;;;6.30;74.20;;;5.73;59.31;96036.47;5082850;28;20570;-80
2021/11/09 07:17:45;;;;;;;8.80;4.78;;;6.30;74.20;;;5.77;59.29;96034.44;5066660;28;20243;-80
2021/11/09 07:20:17;;;;;;;8.23;4.63;;;6.30;74.10;;;5.83;58.95;96033.09;5066232;28;20382;-80
2021/11/09 07:22:46;;;;;;;7.00;4.63;;;6.40;74.30;;;5.87;59.02;96037.06;5061826;28;20212;-80
2021/11/09 07:25:15;;;;;;;7.35;5.50;;;6.40;74.20;;;5.84;59.10;96030.34;5063151;28;20641;-80
2021/11/09 07:27:42;;;;;;;6.55;4.90;;;6.50;74.30;;;5.96;59.20;96043.22;5072369;28;20227;-79
2021/11/09 07:30:12;;;;;;;8.00;5.50;;;6.50;74.30;;;5.98;59.15;96041.31;5068262;28;20265;-80
2021/11/09 07:32:40;;;;;;;8.52;5.22;;;6.50;74.40;;;6.02;59.21;96043.56;5035166;28;20219;-80
2021/11/09 07:35:10;;;;;;;9.80;5.20;;;6.60;74.40;;;6.08;59.13;96045.63;5070479;28;20195;-80
2021/11/09 07:37:37;;;;;;;9.35;5.50;;;6.60;74.50;;;6.13;58.97;96049.59;5054738;28;20211;-80
2021/11/09 07:40:06;;;;;;;9.07;5.32;;;6.60;74.30;;;6.17;59.53;96040.56;5037832;28;20218;-79
2021/11/09 07:42:34;;;;;;;9.80;5.15;;;6.70;74.40;;;6.20;59.63;96048.94;5070769;28;20207;-80
2021/11/09 07:45:01;;;;;;;11.02;5.10;;;6.70;74.40;;;6.25;59.24;96046.72;5069969;28;20200;-79
2021/11/09 07:47:29;;;;;;;7.30;5.13;;;6.80;74.40;;;6.29;59.47;96044.66;5069312;28;20215;-79
2021/11/09 07:49:56;;;;;;;7.80;5.35;;;6.80;74.50;;;6.39;59.96;96044.66;5068947;28;20783;-79
2021/11/09 07:52:26;;;;;;;6.80;4.82;;;6.80;74.50;;;6.44;59.41;96050.28;5078973;28;20712;-80
2021/11/09 07:54:58;;;;;;;8.43;4.90;;;6.80;74.60;;;6.60;59.38;96064.56;5045447;28;20205;-80
2021/11/09 07:57:29;;;;;;;8.95;5.30;;;6.90;74.60;;;6.67;59.11;96063.84;5046944;28;20702;-80
2021/11/09 08:00:09;;;;;;;7.82;4.95;;;7.00;74.60;;;6.74;59.07;96064.13;5049166;28;20224;-80
2021/11/09 08:02:58;;;;;;;8.30;5.25;;;7.10;75.40;;;6.80;59.08;96066.19;5052924;28;20218;-79
2021/11/09 08:05:41;;;;;;;6.88;5.32;;;7.10;74.40;;;6.85;58.96;96069.19;5055786;28;20225;-79
2021/11/09 08:08:18;;;;;;;10.40;5.68;;;7.20;74.60;;;6.92;59.04;96068.63;5037542;28;20206;-79
2021/11/09 08:10:45;;;;;;;9.93;6.03;;;7.30;74.40;;;6.99;59.41;96067.09;5069208;28;20203;-79
2021/11/09 08:13:12;;;;;;;9.32;6.07;;;7.40;74.60;;;7.03;59.17;96066.69;5069836;28;20498;-80
2021/11/09 08:15:40;;;;;;;10.00;6.20;;;7.40;74.60;;;7.08;59.12;96073.25;5068413;28;20553;-79
2021/11/09 08:18:15;;;;;;;9.35;6.45;;;7.50;74.70;;;7.08;59.34;96068.03;5081046;28;20233;-79
2021/11/09 08:20:58;;;;;;;7.75;5.80;;;7.50;74.60;;;7.15;59.29;96075.19;5053855;28;20206;-80
2021/11/09 08:23:25;;;;;;;9.77;6.20;;;7.60;74.40;;;7.18;59.22;96077.50;5071690;28;20562;-80
2021/11/09 08:25:53;;;;;;;10.18;5.95;;;7.60;74.30;;;7.24;59.29;96077.88;5057582;28;20215;-80
2021/11/09 08:28:21;;;;;;;11.80;6.90;;;7.80;74.40;;;7.31;59.49;96082.41;5075159;28;20680;-80
2021/11/09 08:30:52;;;;;;;10.55;6.28;;;7.70;74.60;;;7.39;59.49;96076.47;5083638;28;20222;-80
2021/11/09 08:33:23;;;;;;;11.70;5.90;;;7.80;74.80;;;7.56;59.26;96090.56;5064317;28;20641;-81
2021/11/09 08:35:50;;;;;;;11.73;6.57;;;7.80;75.00;;;7.63;59.40;96083.78;5062869;28;20196;-81
2021/11/09 08:38:17;;;;;;;10.18;5.82;;;7.90;75.00;;;7.80;59.23;96105.72;5057790;28;20227;-80
2021/11/09 08:40:45;;;;;;;8.60;6.18;;;8.00;74.80;;;7.91;59.10;96106.47;5068405;28;20227;-81
2021/11/09 08:43:16;;;;;;;9.00;6.47;;;8.10;74.70;;;8.02;59.50;96109.72;5061945;28;20282;-82
2021/11/09 08:48:38;;;;;;;8.57;5.95;;;8.30;74.80;;;8.34;59.21;96123.28;5071736;28;20223;-81
2021/11/09 08:51:09;;;;;;;7.00;5.90;;;8.50;74.80;;;8.44;59.05;96116.19;5063149;28;20253;-81
2021/11/09 08:53:41;;;;;;;8.75;5.88;;;8.60;75.60;;;8.48;58.63;96114.13;5055569;28;20200;-82
2021/11/09 09:04:19;;;;;;;8.30;5.40;;;8.90;74.80;;;8.63;58.43;96120.50;5072012;28;20183;-81
2021/11/09 09:06:52;;;;;;;8.23;5.50;;;8.90;74.60;;;8.70;58.38;96127.75;5056403;28;20223;-81
2021/11/09 09:09:20;;;;;;;7.70;5.50;;;9.00;74.70;;;8.78;58.30;96126.00;5050942;28;20223;-80
2021/11/09 09:11:49;;;;;;;8.32;5.72;;;9.00;74.60;;;8.87;58.28;96126.91;5055749;28;20273;-81
2021/11/09 09:14:18;;;;;;;7.53;5.07;;;9.10;74.50;;;8.96;58.08;96127.81;5080266;28;20358;-81
2021/11/09 09:16:46;;;;;;;9.50;5.35;;;9.10;74.60;;;9.03;57.99;96126.22;5067612;28;20268;-81
2021/11/09 09:19:17;;;;;;;8.35;5.72;;;9.20;74.60;;;9.10;58.14;96124.63;5075970;28;20188;-81
2021/11/09 09:21:48;;;;;;;6.20;4.55;;;9.20;74.40;;;9.19;57.90;96135.16;5051994;28;20324;-82
2021/11/09 09:57:13;;;;;;;4.72;2.92;;;10.30;71.60;;;10.33;56.28;96126.22;5079853;28;20223;-81
2021/11/09 09:59:44;;;;;;;4.20;3.20;;;10.40;71.40;;;10.42;56.06;96116.59;5050778;28;20278;-81
2021/11/09 10:02:49;;;;;;;4.15;3.20;;;10.40;71.30;;;10.44;55.70;96116.47;5072115;28;20222;-78
2021/11/09 10:05:18;;;;;;;4.65;3.03;;;10.50;71.00;;;10.50;55.43;96118.44;5069905;28;20204;-79
2021/11/09 10:07:51;;;;;;;2.95;2.53;;;10.60;71.10;;;10.48;55.37;96125.63;5056396;28;20307;-78
2021/11/09 10:10:33;;;;;;;2.78;2.47;;;10.70;70.40;;;10.43;55.19;96127.94;5080300;28;20211;-78
2021/11/09 10:13:10;;;;;;;2.38;2.10;;;10.70;69.90;;;10.42;54.87;96127.09;5067632;28;20211;-79
2021/11/09 10:15:43;;;;;;;2.00;1.80;;;10.70;69.70;;;10.42;54.72;96116.59;5071605;28;20225;-79
2021/11/09 10:18:15;;;;;;;3.33;1.70;;;10.70;69.80;;;10.51;54.65;96126.13;5072139;28;20195;-80
2021/11/09 10:20:53;;;;;;;2.33;1.70;;;10.80;69.80;;;10.57;54.64;96130.75;5055806;28;20211;-79
2021/11/09 10:23:30;;;;;;;2.80;2.30;;;10.80;69.30;;;10.65;54.47;96121.25;5072264;28;20187;-79
2021/11/09 10:26:18;;;;;;;21.58;2.95;;;10.80;69.60;;;10.73;54.53;96116.81;5073231;28;20206;-78
2021/11/09 10:28:46;;;;;;;1.90;1.80;;;10.90;69.30;;;10.81;53.61;96121.25;5073007;28;20751;-79
2021/11/09 10:31:16;;;;;;;2.67;2.25;;;10.90;69.30;;;10.88;53.76;96119.59;5055921;28;20211;-79
2021/11/09 10:33:49;;;;;;;2.53;2.20;;;11.00;69.20;;;10.97;53.67;96114.38;5039744;28;20249;-79
2021/11/09 10:36:21;;;;;;;2.58;2.00;;;11.10;69.60;;;11.07;53.68;96114.19;5057626;28;20272;-79
2021/11/09 10:38:50;;;;;;;2.15;1.95;;;11.10;69.40;;;11.14;53.49;96113.34;5073413;28;20356;-79
2021/11/09 10:41:18;;;;;;;2.45;2.17;;;11.20;69.50;;;11.19;53.27;96100.56;5072788;28;20498;-79
2021/11/09 10:43:47;;;;;;;4.22;2.35;;;11.20;69.30;;;11.32;53.08;96104.50;5072915;28;20688;-80
2021/11/09 10:46:29;;;;;;;3.15;2.25;;;11.30;69.20;;;11.44;53.43;96103.16;5072859;28;20268;-79
2021/11/09 10:48:58;;;;;;;2.97;2.38;;;11.40;69.00;;;11.57;53.02;96105.28;5056116;28;20223;-79
2021/11/09 10:51:52;;;;;;;4.32;2.72;;;11.50;69.40;;;11.64;52.63;96102.78;5052603;28;20258;-79
2021/11/09 10:54:59;;;;;;;3.20;2.10;;;11.60;68.80;;;11.67;52.81;96107.69;5066222;28;21807;-79
2021/11/09 10:57:56;;;;;;;3.60;2.08;;;11.60;68.70;;;11.67;52.31;96107.69;5069311;28;20465;-80
2021/11/09 11:06:21;;;;;;;3.33;2.20;;;11.80;67.60;;;11.65;52.41;96112.31;5078471;28;20241;-79
2021/11/09 11:09:02;;;;;;;2.15;1.95;;;11.80;68.00;;;11.65;52.43;96109.66;5082453;28;20680;-79
2021/11/09 11:11:52;;;;;;;2.28;2.05;;;11.90;67.80;;;11.71;52.38;96110.81;5063615;28;20340;-79
2021/11/09 11:14:29;;;;;;;2.60;2.25;;;11.90;68.30;;;11.81;52.34;96106.97;5037311;28;20234;-78
2021/11/09 11:17:06;;;;;;;4.97;3.30;;;12.00;68.40;;;11.94;52.02;96109.06;5070885;28;20226;-79
2021/11/09 11:19:38;;;;;;;3.15;2.67;;;12.10;68.30;;;12.06;52.18;96093.78;5053978;28;20248;-79
2021/11/09 11:22:14;;;;;;;2.50;2.20;;;12.10;67.90;;;12.21;52.53;96099.13;5071875;28;20221;-79
2021/11/09 11:24:44;;;;;;;3.03;2.40;;;12.30;68.60;;;12.35;52.42;96089.66;5070264;28;20251;-78
2021/11/09 11:27:14;;;;;;;3.17;2.40;;;12.40;68.50;;;12.46;51.12;96094.56;5074455;28;20230;-79
2021/11/09 11:29:42;;;;;;;3.03;2.70;;;12.60;68.10;;;12.59;50.90;96086.06;5075341;28;20214;-79
2021/11/09 11:32:17;;;;;;;2.80;2.60;;;12.60;67.80;;;12.70;51.39;96082.19;5067059;28;20684;-79
2021/11/09 11:34:45;;;;;;;2.60;2.38;;;12.70;67.50;;;12.83;51.33;96081.63;5053560;28;20197;-78
2021/11/09 11:37:15;;;;;;;4.45;2.50;;;12.90;67.90;;;12.95;51.15;96085.47;5068982;28;20294;-78
2021/11/09 11:39:44;;;;;;;3.03;2.10;;;13.10;67.70;;;13.09;50.92;96086.50;5052995;28;20383;-79
2021/11/09 11:42:16;;;;;;;2.40;2.15;;;13.10;67.70;;;13.21;50.61;96076.34;5090420;28;20214;-79
2021/11/09 11:44:58;;;;;;;3.38;2.70;;;13.20;67.20;;;13.33;50.42;96079.38;5040872;28;20707;-79
2021/11/09 11:47:26;;;;;;;3.63;2.50;;;13.30;66.80;;;13.43;50.01;96079.94;5069127;28;20268;-79
2021/11/09 11:49:57;;;;;;;4.78;4.00;;;13.50;66.90;;;13.53;49.89;96081.50;5058870;28;20251;-79
2021/11/09 11:52:33;;;;;;;4.45;4.05;;;13.60;66.80;;;13.61;49.58;96076.16;5067535;28;20225;-79
2021/11/09 11:55:09;;;;;;;5.20;4.00;;;13.60;66.10;;;13.69;49.14;96067.31;5074657;28;20217;-79
2021/11/09 11:57:48;;;;;;;2.70;2.50;;;13.80;66.00;;;13.87;49.32;96080.13;5068644;28;20228;-78
2021/11/09 12:00:58;;;;;;;2.30;2.10;;;14.00;66.10;;;14.03;49.56;96068.56;5068875;28;20202;-78
2021/11/09 12:03:25;;;;;;;3.45;2.70;;;14.00;65.80;;;14.22;48.98;96073.25;5050912;28;20218;-80
2021/11/09 12:06:16;;;;;;;2.88;2.53;;;14.10;66.40;;;14.37;47.71;96075.03;5070416;28;20191;-79
2021/11/09 12:08:51;;;;;;;4.85;3.42;;;14.30;65.10;;;14.51;48.02;96073.34;5069083;28;20242;-79
2021/11/09 12:11:24;;;;;;;3.40;2.70;;;14.40;65.80;;;14.67;47.80;96059.94;5049873;28;20757;-78
2021/11/09 12:13:57;;;;;;;2.80;2.22;;;14.60;65.20;;;14.82;47.88;96059.06;5052405;28;20191;-80
2021/11/09 12:17:03;;;;;;;2.45;1.92;;;14.70;65.60;;;14.99;48.00;96054.28;5038942;28;20272;-80
2021/11/09 12:19:51;;;;;;;3.00;2.38;;;14.80;65.20;;;15.21;48.02;96052.44;5070599;28;20218;-81
2021/11/09 12:22:22;;;;;;;5.82;2.10;;;15.00;65.60;;;15.39;47.71;96059.84;5081575;28;20715;-80
2021/11/09 12:24:57;;;;;;;2.60;2.10;;;15.20;65.50;;;15.55;47.53;96050.00;5053464;28;20481;-80
2021/11/09 12:27:51;;;;;;;3.20;2.30;;;15.40;65.30;;;15.72;46.98;96047.84;5050224;28;20211;-79
2021/11/09 12:30:36;;;;;;;2.75;2.13;;;15.60;65.10;;;15.83;45.98;96047.31;5069755;28;20288;-80
2021/11/09 12:33:19;;;;;;;2.25;2.05;;;15.70;64.30;;;15.95;46.21;96043.13;5087829;28;20303;-79
2021/11/09 12:35:57;;;;;;;3.17;2.15;;;15.90;64.30;;;16.10;46.24;96045.59;5071017;28;20683;-80
2021/11/09 12:38:48;;;;;;;3.08;1.92;;;16.00;64.60;;;16.17;45.42;96035.84;5087670;28;20560;-80
2021/11/09 12:41:24;;;;;;;2.22;1.70;;;16.30;63.90;;;16.30;45.71;96040.34;5099988;28;20221;-79
2021/11/09 12:43:54;;;;;;;2.05;1.80;;;16.30;64.80;;;16.44;45.52;96029.78;5053498;28;20186;-78
2021/11/09 12:46:38;;;;;;;3.50;1.50;;;16.40;63.80;;;16.56;45.53;96032.69;5087826;28;20551;-81
2021/11/09 12:49:26;;;;;;;2.13;1.77;;;16.60;63.40;;;16.64;45.35;96035.94;5055146;28;20579;-82
2021/11/09 12:51:55;;;;;;;3.00;2.40;;;16.70;63.10;;;16.79;44.89;96037.59;5052608;28;20215;-80
2021/11/09 12:54:28;;;;;;;2.25;1.70;;;16.80;63.10;;;16.91;44.87;96033.31;5053781;28;20558;-81
2021/11/09 12:57:04;;;;;;;2.50;2.20;;;17.00;63.60;;;17.08;44.80;96035.59;5052111;28;20717;-81
2021/11/09 12:59:53;;;;;;;5.25;3.30;;;17.10;62.60;;;17.21;44.55;96027.63;5068792;28;20209;-80
2021/11/09 13:02:39;;;;;;;4.10;3.42;;;17.30;62.80;;;17.28;43.63;96024.94;5071250;28;20688;-82